Nearby METAR Reports

 

KKLS - Kelso Longveiw, Washington, USA
Distance from station: ESE 7mi, 11km
Updated: 2024-06-16 03:56
Overcast
Overcast
 Wind from calm
Wind: Calm
Temperature: 48°F, 9°C
Dew Point: 45°F, 7°C
Humidity: 87%
Barometer: 30.16 inHg, 1021.3 hPa
Clouds: Overcast
Visibility: 10 miles, 16 km
Cloud details: Overcast 5500 ft
2024/06/16 10:56 KKLS 161056Z AUTO 00000KT 10SM OVC055 09/07 A3016 RMK AO2 SLP218 T00890072
KSPB - Scappoose, Oregon, USA
Distance from station: SSE 29mi, 46km
Updated: 2024-06-16 03:53
Overcast
Overcast
 Wind from calm
Wind: Calm
Barometer: 30.15 inHg, 1021 hPa
Clouds: Overcast
Visibility: 10 miles, 16 km
Cloud details: Overcast 6000 ft
2024/06/16 10:53 KSPB 161053Z AUTO 00000KT 10SM OVC060 A3015 RMK AO2 SLPNO $
 
KCLS - Chehalis Central, Washington, USA
Distance from station: N 36mi, 58km
Updated: 2024-06-16 03:55
Overcast
Overcast
 Wind from calm
Wind: Calm
Temperature: 41°F, 5°C
Dew Point: 41°F, 5°C
Humidity: 100%
Barometer: 30.15 inHg, 1021 hPa
Clouds: Overcast
Visibility: 9 miles, 14 km
Cloud details: Mostly cloudy 500 ft
Overcast 6500 ft
2024/06/16 10:55 KCLS 161055Z AUTO 00000KT 9SM BKN005 OVC065 05/05 A3015 RMK AO2
KAST - Astoria, Oregon, USA
Distance from station: W 41mi, 66km
Updated: 2024-06-16 04:04
Partly cloudy
Partly cloudy
 Wind from E
Wind: E 6 mph, 9 km/h
Temperature: 50°F, 10°C
Wind Chill: 48°F, 9°C
Dew Point: 46°F, 8°C
Humidity: 88%
Barometer: 30.13 inHg, 1020.3 hPa
Clouds: Partly cloudy
Visibility: 10 miles, 16 km
Cloud details: Partly cloudy 2400 ft
Partly cloudy 3300 ft
2024/06/16 11:04 KAST 161104Z AUTO 09005KT 10SM SCT024 SCT033 10/08 A3013 RMK AO2 T01000083 $
 
KVUO - Vancouver, Washington, USA
Distance from station: SSE 42mi, 68km
Updated: 2024-06-16 03:53

 Wind from calm
Wind: Calm
Temperature: 50°F, 10°C
Dew Point: 45°F, 7°C
Humidity: 82%
Barometer: 30.17 inHg, 1021.7 hPa
Visibility: 10 miles, 16 km
2024/06/16 10:53 KVUO 161053Z AUTO 00000KT 10SM 10/07 A3017 RMK AO2 SLP216 T01000067 $
KHIO - Hillsboro/Portld, Oregon, USA
Distance from station: S 43mi, 69km
Updated: 2024-06-16 03:53
Overcast
Overcast
 Wind from N
Wind: N 3 mph, 6 km/h
Temperature: 43°F, 6°C
Dew Point: 43°F, 6°C
Humidity: 100%
Barometer: 30.15 inHg, 1021 hPa
Clouds: Overcast
Visibility: 10 miles, 16 km
Cloud details: Overcast 6000 ft
2024/06/16 10:53 KHIO 161053Z 35003KT 10SM OVC060 06/06 A3015 RMK AO2 SLP210 T00610056
 
KPDX - Portland, Oregon, USA
Distance from station: SSE 44mi, 70km
Updated: 2024-06-16 03:53
Overcast
Overcast
 Wind from WNW
Wind: WNW 3 mph, 6 km/h
Temperature: 54°F, 12°C
Dew Point: 46°F, 8°C
Humidity: 77%
Barometer: 30.15 inHg, 1021 hPa
Clouds: Overcast
Visibility: 10 miles, 16 km
Cloud details: Overcast 3900 ft
2024/06/16 10:53 KPDX 161053Z 30003KT 10SM OVC039 12/08 A3015 RMK AO2 SLP209 T01170078